createdAt,value
2023-04-07T00:01:26.598Z,3.64
2023-04-07T00:05:15.898Z,3.62
2023-04-07T00:08:57.065Z,3.60
2023-04-07T00:12:39.390Z,3.58
2023-04-07T00:16:10.248Z,3.54
2023-04-07T00:19:44.505Z,3.54
2023-04-07T00:23:32.861Z,3.56
2023-04-07T00:27:21.973Z,3.57
2023-04-07T00:30:47.145Z,3.62
2023-04-07T00:34:36.353Z,3.68
2023-04-07T00:38:25.521Z,3.71
2023-04-07T00:42:08.960Z,3.76
2023-04-07T00:45:57.924Z,3.79
2023-04-07T00:49:46.087Z,3.84
2023-04-07T00:53:26.534Z,3.88
2023-04-07T00:57:01.165Z,3.90
2023-04-07T01:00:24.534Z,3.93
2023-04-07T01:04:12.812Z,3.95
2023-04-07T01:07:52.338Z,3.99
2023-04-07T01:11:18.253Z,4.01
2023-04-07T01:14:47.150Z,4.02
2023-04-07T01:18:38.974Z,4.01
2023-04-07T01:22:13.500Z,3.99
2023-04-07T01:25:52.022Z,3.97
2023-04-07T01:29:14.465Z,3.95
2023-04-07T01:32:47.907Z,3.93
2023-04-07T01:36:17.807Z,3.92
2023-04-07T01:43:32.576Z,3.94
2023-04-07T01:47:13.844Z,3.95
2023-04-07T01:50:54.326Z,3.96
2023-04-07T01:54:31.113Z,3.98
2023-04-07T01:58:20.081Z,3.96
2023-04-07T02:02:00.968Z,3.96
2023-04-07T02:05:51.566Z,3.95
2023-04-07T02:09:19.427Z,3.95
2023-04-07T02:12:58.050Z,3.91
2023-04-07T02:16:32.753Z,3.88
2023-04-07T02:20:14.886Z,3.87
2023-04-07T02:23:57.246Z,3.88
2023-04-07T02:27:46.366Z,3.89
2023-04-07T02:31:17.018Z,3.94
2023-04-07T02:35:05.558Z,3.96
2023-04-07T02:38:45.922Z,3.95
2023-04-07T02:42:27.409Z,3.96
2023-04-07T02:46:11.858Z,3.97
2023-04-07T02:49:45.788Z,3.97
2023-04-07T02:53:25.225Z,3.95
2023-04-07T02:56:30.783Z,3.93
2023-04-07T03:00:03.258Z,3.92
2023-04-07T03:03:45.409Z,3.92
2023-04-07T03:07:23.619Z,3.94
2023-04-07T03:10:36.797Z,3.94
2023-04-07T03:14:01.211Z,3.97
2023-04-07T03:17:39.820Z,3.95
2023-04-07T03:21:29.021Z,3.95
2023-04-07T03:24:54.091Z,3.97
2023-04-07T03:28:29.127Z,3.97
2023-04-07T03:31:56.262Z,3.96
2023-04-07T03:35:45.469Z,3.95
2023-04-07T03:39:34.726Z,3.95
2023-04-07T03:42:31.267Z,3.93
2023-04-07T03:46:13.897Z,3.92
2023-04-07T03:50:03.180Z,3.93
2023-04-07T03:53:21.499Z,3.95
2023-04-07T03:56:55.311Z,3.98
2023-04-07T04:00:36.700Z,4.00
2023-04-07T04:04:10.819Z,4.03
2023-04-07T04:07:41.779Z,4.02
2023-04-07T04:11:24.481Z,3.99
2023-04-07T04:14:21.865Z,3.97
2023-04-07T04:17:36.948Z,3.94
2023-04-07T04:21:12.762Z,3.88
2023-04-07T04:25:02.262Z,3.84
2023-04-07T04:28:49.074Z,3.78
2023-04-07T04:32:14.191Z,3.73
2023-04-07T04:35:50.376Z,3.69
2023-04-07T04:39:31.582Z,3.66
2023-04-07T04:43:19.844Z,3.64
2023-04-07T04:46:49.081Z,3.63
2023-04-07T04:50:27.178Z,3.61
2023-04-07T04:54:03.092Z,3.59
2023-04-07T04:57:40.226Z,3.54
2023-04-07T05:01:02.875Z,3.50
2023-04-07T05:04:25.463Z,3.47
2023-04-07T05:08:14.795Z,3.46
2023-04-07T05:11:55.175Z,3.45
2023-04-07T05:15:31.532Z,3.42
2023-04-07T05:18:57.268Z,3.42
2023-04-07T05:22:46.834Z,3.45
2023-04-07T05:26:37.044Z,3.45
2023-04-07T05:30:16.981Z,3.46
2023-04-07T05:33:51.175Z,3.44
2023-04-07T05:37:32.012Z,3.42
2023-04-07T05:40:55.116Z,3.39
2023-04-07T05:43:56.296Z,3.37
2023-04-07T05:46:45.145Z,3.37
2023-04-07T05:49:46.897Z,3.41
2023-04-07T05:52:44.044Z,3.42
2023-04-07T05:55:34.237Z,3.44
2023-04-07T05:58:17.359Z,3.47
2023-04-07T06:01:34.047Z,3.51
2023-04-07T06:04:22.973Z,3.55
2023-04-07T06:07:29.606Z,3.59
2023-04-07T06:10:13.650Z,3.61
2023-04-07T06:13:12.848Z,3.62
2023-04-07T06:15:52.485Z,3.61
2023-04-07T06:18:36.331Z,3.63
2023-04-07T06:21:35.830Z,3.64
2023-04-07T06:24:33.392Z,3.66
2023-04-07T06:27:31.977Z,3.65
2023-04-07T06:30:32.821Z,3.65
2023-04-07T06:33:16.053Z,3.66
2023-04-07T06:36:17.150Z,3.64
2023-04-07T06:39:04.004Z,3.64
2023-04-07T06:42:01.349Z,3.65
2023-04-07T06:45:02.492Z,3.66
2023-04-07T06:47:55.688Z,3.64
2023-04-07T06:50:56.293Z,3.64
2023-04-07T06:53:52.214Z,3.64
2023-04-07T06:56:27.375Z,3.63
2023-04-07T06:59:19.175Z,3.62
2023-04-07T07:02:08.293Z,3.59
2023-04-07T07:04:59.557Z,3.59
2023-04-07T07:08:11.041Z,3.57
2023-04-07T07:11:04.703Z,3.54
2023-04-07T07:13:56.227Z,3.53
2023-04-07T07:16:43.575Z,3.54
2023-04-07T07:19:20.623Z,3.60
2023-04-07T07:22:08.255Z,3.64
2023-04-07T07:25:10.729Z,3.69
2023-04-07T07:28:02.762Z,3.74
2023-04-07T07:30:40.254Z,3.74
2023-04-07T07:33:27.924Z,3.74
2023-04-07T07:36:15.113Z,3.75
2023-04-07T07:38:59.345Z,3.76
2023-04-07T07:41:50.915Z,3.78
2023-04-07T07:44:37.267Z,3.78
2023-04-07T07:47:37.834Z,3.76
2023-04-07T07:51:27.373Z,3.80
2023-04-07T07:55:16.565Z,3.84
2023-04-07T07:58:59.456Z,3.88
2023-04-07T08:02:31.675Z,3.88
2023-04-07T08:06:21.033Z,3.88
2023-04-07T08:10:03.017Z,3.90
2023-04-07T08:13:51.167Z,3.94
2023-04-07T08:17:40.331Z,3.93
2023-04-07T08:20:40.046Z,3.96
2023-04-07T08:24:29.016Z,3.97
2023-04-07T08:28:07.957Z,3.98
2023-04-07T08:31:48.699Z,4.06
2023-04-07T08:34:51.907Z,4.11
2023-04-07T08:38:21.120Z,4.17
2023-04-07T08:41:45.701Z,4.27
2023-04-07T08:44:36.607Z,4.37
2023-04-07T08:47:44.283Z,4.46
2023-04-07T08:51:10.444Z,4.52
2023-04-07T08:54:59.501Z,4.54
2023-04-07T08:58:46.321Z,4.61
2023-04-07T09:02:11.553Z,4.75
2023-04-07T09:06:00.898Z,4.83
2023-04-07T09:09:49.986Z,4.89
2023-04-07T09:13:39.162Z,4.91
2023-04-07T09:17:15.304Z,4.93
2023-04-07T09:20:33.037Z,4.98
2023-04-07T09:24:11.251Z,5.02
2023-04-07T09:27:51.725Z,5.05
2023-04-07T09:31:39.965Z,5.05
2023-04-07T09:35:29.144Z,5.10
2023-04-07T09:39:09.813Z,5.10
2023-04-07T09:42:37.336Z,5.05
2023-04-07T09:46:27.188Z,5.05
2023-04-07T09:50:06.861Z,5.01
2023-04-07T09:53:56.500Z,5.01
2023-04-07T09:57:19.956Z,4.98
2023-04-07T10:00:58.230Z,4.96
2023-04-07T10:04:17.892Z,5.01
2023-04-07T10:07:43.678Z,5.01
2023-04-07T10:11:27.421Z,5.03
2023-04-07T10:15:07.647Z,5.05
2023-04-07T10:18:02.699Z,5.04
2023-04-07T10:21:51.786Z,4.96
2023-04-07T10:25:20.138Z,4.92
2023-04-07T10:28:59.678Z,4.87
2023-04-07T10:32:20.220Z,4.79
2023-04-07T10:35:59.738Z,4.75
2023-04-07T10:39:40.599Z,4.74
2023-04-07T10:43:38.897Z,4.72
2023-04-07T10:47:28.165Z,4.76
2023-04-07T10:51:20.100Z,4.77
2023-04-07T10:55:00.864Z,4.76
2023-04-07T10:58:54.339Z,4.76
2023-04-07T11:01:59.853Z,4.76
2023-04-07T11:04:49.317Z,4.75
2023-04-07T11:08:34.998Z,4.77
2023-04-07T11:12:39.370Z,4.82
2023-04-07T11:16:28.664Z,4.94
2023-04-07T11:19:49.223Z,4.95
2023-04-07T11:23:34.323Z,5.01
2023-04-07T11:27:08.954Z,5.05
2023-04-07T11:30:49.517Z,5.06
2023-04-07T11:34:34.682Z,5.04
2023-04-07T11:38:06.480Z,4.96
2023-04-07T11:41:55.727Z,4.96
2023-04-07T11:45:37.635Z,5.01
2023-04-07T11:49:16.761Z,5.04
2023-04-07T11:53:06.137Z,5.13
2023-04-07T11:56:41.484Z,5.15
2023-04-07T12:00:29.638Z,5.16
2023-04-07T12:04:21.642Z,5.16
2023-04-07T12:07:59.578Z,5.28
2023-04-07T12:11:41.474Z,5.24
2023-04-07T12:14:59.207Z,5.22
2023-04-07T12:18:23.084Z,5.22
2023-04-07T12:21:27.709Z,5.25
2023-04-07T12:24:33.072Z,5.25
2023-04-07T12:27:55.213Z,5.31
2023-04-07T12:31:01.156Z,5.37
2023-04-07T12:34:05.854Z,5.37
2023-04-07T12:36:57.193Z,5.28
2023-04-07T12:39:53.832Z,5.23
2023-04-07T12:43:23.966Z,5.17
2023-04-07T12:46:49.885Z,5.09
2023-04-07T12:50:04.974Z,5.09
2023-04-07T12:53:13.987Z,5.12
2023-04-07T12:56:16.459Z,5.18
2023-04-07T12:59:32.351Z,5.27
2023-04-07T13:02:46.738Z,5.33
2023-04-07T13:05:35.151Z,5.34
2023-04-07T13:08:32.631Z,5.34
2023-04-07T13:11:55.154Z,5.40
2023-04-07T13:15:05.391Z,5.39
2023-04-07T13:18:27.055Z,5.39
2023-04-07T13:21:54.910Z,5.37
2023-04-07T13:25:19.509Z,5.38
2023-04-07T13:28:25.152Z,5.44
2023-04-07T13:31:39.101Z,5.51
2023-04-07T13:35:05.125Z,5.53
2023-04-07T13:38:45.806Z,5.58
2023-04-07T13:42:16.838Z,5.57
2023-04-07T13:45:42.297Z,5.56
2023-04-07T13:48:56.632Z,5.54
2023-04-07T13:52:45.734Z,5.53
2023-04-07T13:56:11.403Z,5.59
2023-04-07T13:59:53.723Z,5.67
2023-04-07T14:03:35.969Z,5.71
2023-04-07T14:07:15.572Z,5.74
2023-04-07T14:10:44.678Z,5.77
2023-04-07T14:14:33.944Z,5.78
2023-04-07T14:18:12.150Z,5.76
2023-04-07T14:22:01.450Z,5.75
2023-04-07T14:25:50.766Z,5.73
2023-04-07T14:29:40.071Z,5.66
2023-04-07T14:33:12.463Z,5.60
2023-04-07T14:36:45.036Z,5.57
2023-04-07T14:40:34.306Z,5.53
2023-04-07T14:44:23.574Z,5.58
2023-04-07T14:48:12.776Z,5.65
2023-04-07T14:52:02.030Z,5.72
2023-04-07T14:55:36.471Z,5.76
2023-04-07T14:59:25.822Z,5.72
2023-04-07T15:03:15.220Z,5.71
2023-04-07T15:06:59.554Z,5.68
2023-04-07T15:10:48.833Z,5.66
2023-04-07T15:14:38.101Z,5.55
2023-04-07T15:18:27.345Z,5.51
2023-04-07T15:22:16.349Z,5.47
2023-04-07T15:26:05.619Z,5.42
2023-04-07T15:29:54.988Z,5.39
2023-04-07T15:33:44.208Z,5.36
2023-04-07T15:37:23.602Z,5.36
2023-04-07T15:41:01.416Z,5.32
2023-04-07T15:44:50.584Z,5.32
2023-04-07T15:48:39.810Z,5.32
2023-04-07T15:52:21.759Z,5.35
2023-04-07T15:56:10.921Z,5.37
2023-04-07T16:00:00.207Z,5.34
2023-04-07T16:03:49.754Z,5.34
2023-04-07T16:07:39.552Z,5.36
2023-04-07T16:11:28.933Z,5.35
2023-04-07T16:15:32.399Z,5.35
2023-04-07T16:19:25.863Z,5.40
2023-04-07T16:23:15.203Z,5.41
2023-04-07T16:27:04.640Z,5.43
2023-04-07T16:30:54.127Z,5.44
2023-04-07T16:34:43.304Z,5.39
2023-04-07T16:38:32.681Z,5.32
2023-04-07T16:42:20.755Z,5.31
2023-04-07T16:45:58.780Z,5.26
2023-04-07T16:49:37.778Z,5.24
2023-04-07T16:53:21.197Z,5.22
2023-04-07T16:56:59.427Z,5.22
2023-04-07T17:00:48.801Z,5.24
2023-04-07T17:04:38.036Z,5.26
2023-04-07T17:08:27.229Z,5.25
2023-04-07T17:12:16.508Z,5.24
2023-04-07T17:16:05.786Z,5.17
2023-04-07T17:19:56.842Z,5.14
2023-04-07T17:23:14.452Z,5.13
2023-04-07T17:26:49.705Z,5.12
2023-04-07T17:30:38.850Z,5.11
2023-04-07T17:34:28.230Z,5.10
2023-04-07T17:38:07.552Z,5.08
2023-04-07T17:41:42.281Z,5.07
2023-04-07T17:45:22.548Z,5.07
2023-04-07T17:49:11.618Z,5.03
2023-04-07T17:53:00.887Z,5.00
2023-04-07T17:56:50.160Z,5.00
2023-04-07T18:00:39.941Z,5.01
2023-04-07T18:04:20.014Z,5.00
2023-04-07T18:07:56.482Z,4.99
2023-04-07T18:11:45.771Z,4.98
2023-04-07T18:15:20.148Z,4.96
2023-04-07T18:19:09.341Z,4.94
2023-04-07T18:22:58.618Z,4.93
2023-04-07T18:26:48.029Z,4.93
2023-04-07T18:30:36.032Z,4.93
2023-04-07T18:34:25.228Z,4.91
2023-04-07T18:38:14.485Z,4.90
2023-04-07T18:42:03.614Z,4.91
2023-04-07T18:44:57.112Z,4.91
2023-04-07T18:48:46.384Z,4.91
2023-04-07T18:52:27.065Z,4.94
2023-04-07T18:56:16.172Z,4.95
2023-04-07T18:59:55.667Z,4.98
2023-04-07T19:03:44.024Z,4.97
2023-04-07T19:07:26.695Z,4.97
2023-04-07T19:11:09.053Z,4.98
2023-04-07T19:14:48.401Z,4.98
2023-04-07T19:18:31.936Z,4.96
2023-04-07T19:22:21.149Z,4.98
2023-04-07T19:26:10.337Z,4.96
2023-04-07T19:29:59.769Z,4.92
2023-04-07T19:33:47.949Z,4.88
2023-04-07T19:37:27.588Z,4.82
2023-04-07T19:41:16.501Z,4.81
2023-04-07T19:44:58.497Z,4.84
2023-04-07T19:48:47.880Z,4.84
2023-04-07T19:52:37.153Z,4.83
2023-04-07T19:56:14.711Z,4.81
2023-04-07T19:59:40.065Z,4.81
2023-04-07T20:03:29.771Z,4.82
2023-04-07T20:07:13.184Z,4.84
2023-04-07T20:11:02.556Z,4.86
2023-04-07T20:14:14.455Z,4.88
2023-04-07T20:17:43.295Z,4.88
2023-04-07T20:21:26.999Z,4.87
2023-04-07T20:24:57.835Z,4.89
2023-04-07T20:28:24.604Z,4.91
2023-04-07T20:32:13.848Z,4.91
2023-04-07T20:35:57.085Z,4.91
2023-04-07T20:39:46.459Z,4.88
2023-04-07T20:43:28.487Z,4.88
2023-04-07T20:47:09.036Z,4.89
2023-04-07T20:51:07.005Z,4.85
2023-04-07T20:54:56.176Z,4.84
2023-04-07T20:58:45.360Z,4.84
2023-04-07T21:02:34.981Z,4.83
2023-04-07T21:06:24.414Z,4.83
2023-04-07T21:10:14.704Z,4.84
2023-04-07T21:13:53.017Z,4.86
2023-04-07T21:17:27.598Z,4.89
2023-04-07T21:21:19.660Z,4.90
2023-04-07T21:24:51.529Z,4.89
2023-04-07T21:28:41.132Z,4.87
2023-04-07T21:32:47.929Z,4.90
2023-04-07T21:36:12.744Z,4.86
2023-04-07T21:39:43.242Z,4.89
2023-04-07T21:43:11.210Z,4.90
2023-04-07T21:47:00.590Z,4.92
2023-04-07T21:50:43.105Z,4.94
2023-04-07T21:54:25.415Z,4.93
2023-04-07T21:58:03.324Z,4.94
2023-04-07T22:01:42.406Z,4.97
2023-04-07T22:05:30.410Z,4.98
2023-04-07T22:09:11.381Z,4.98
2023-04-07T22:12:45.598Z,5.01
2023-04-07T22:16:22.869Z,5.05
2023-04-07T22:19:46.361Z,5.08
2023-04-07T22:23:34.611Z,5.08
2023-04-07T22:27:13.639Z,5.08
2023-04-07T22:31:03.078Z,5.11
2023-04-07T22:34:52.205Z,5.13
2023-04-07T22:38:41.383Z,5.13
2023-04-07T22:42:21.359Z,5.13
2023-04-07T22:46:09.351Z,5.13
2023-04-07T22:49:33.741Z,5.14
2023-04-07T22:53:13.180Z,5.16
2023-04-07T22:56:54.744Z,5.18
2023-04-07T23:00:43.679Z,5.19
2023-04-07T23:04:32.885Z,5.21
2023-04-07T23:08:22.021Z,5.23
2023-04-07T23:12:05.264Z,5.29
2023-04-07T23:15:32.979Z,5.36
2023-04-07T23:19:15.652Z,5.43
2023-04-07T23:23:04.881Z,5.48
2023-04-07T23:26:53.989Z,5.52
2023-04-07T23:30:37.024Z,5.58
2023-04-07T23:34:25.106Z,5.64
2023-04-07T23:37:51.134Z,5.68
2023-04-07T23:41:16.857Z,5.72
2023-04-07T23:45:05.985Z,5.75
2023-04-07T23:48:55.043Z,5.76
2023-04-07T23:52:42.901Z,5.79
2023-04-07T23:56:31.192Z,5.83
